createdAt,value
2023-03-28T00:02:14.857Z,10.63
2023-03-28T00:04:42.029Z,5.20
2023-03-28T00:07:09.134Z,6.18
2023-03-28T00:09:37.540Z,5.43
2023-03-28T00:12:04.779Z,7.13
2023-03-28T00:14:31.965Z,7.13
2023-03-28T00:17:01.740Z,6.68
2023-03-28T00:19:33.105Z,6.30
2023-03-28T00:22:00.751Z,3.60
2023-03-28T00:24:27.910Z,7.00
2023-03-28T00:26:55.057Z,10.40
2023-03-28T00:29:23.054Z,4.63
2023-03-28T00:31:51.063Z,6.70
2023-03-28T00:34:18.296Z,7.78
2023-03-28T00:36:45.590Z,4.72
2023-03-28T00:39:13.364Z,3.92
2023-03-28T00:41:42.604Z,8.05
2023-03-28T00:44:28.621Z,8.02
2023-03-28T00:46:57.987Z,7.13
2023-03-28T00:49:26.432Z,5.90
2023-03-28T00:51:57.606Z,5.75
2023-03-28T00:54:26.274Z,6.93
2023-03-28T00:56:55.727Z,7.15
2023-03-28T00:59:25.237Z,5.63
2023-03-28T01:01:52.317Z,3.60
2023-03-28T01:04:20.635Z,6.07
2023-03-28T01:06:52.034Z,7.57
2023-03-28T01:09:21.229Z,6.75
2023-03-28T01:11:51.852Z,7.25
2023-03-28T01:14:21.323Z,6.95
2023-03-28T01:16:51.156Z,8.70
2023-03-28T01:19:26.540Z,7.35
2023-03-28T01:22:30.721Z,6.97
2023-03-28T01:25:22.551Z,4.43
2023-03-28T01:28:02.315Z,6.72
2023-03-28T01:30:58.511Z,6.30
2023-03-28T01:34:00.542Z,4.00
2023-03-28T01:36:40.469Z,6.80
2023-03-28T01:39:20.795Z,5.75
2023-03-28T01:41:56.220Z,7.40
2023-03-28T01:44:32.535Z,5.78
2023-03-28T01:46:59.572Z,5.40
2023-03-28T01:49:52.053Z,5.85
2023-03-28T01:52:22.026Z,6.18
2023-03-28T01:55:17.257Z,8.70
2023-03-28T01:58:00.193Z,4.30
2023-03-28T02:00:43.234Z,7.10
2023-03-28T02:03:22.221Z,6.18
2023-03-28T02:05:57.540Z,7.63
2023-03-28T02:08:29.784Z,11.15
2023-03-28T02:11:15.357Z,6.97
2023-03-28T02:14:11.486Z,6.45
2023-03-28T02:16:51.768Z,6.47
2023-03-28T02:19:40.646Z,10.38
2023-03-28T02:22:35.856Z,8.30
2023-03-28T02:25:10.257Z,7.10
2023-03-28T02:27:59.742Z,5.60
2023-03-28T02:30:51.700Z,5.50
2023-03-28T02:33:51.171Z,4.45
2023-03-28T02:36:21.350Z,10.82
2023-03-28T02:38:54.647Z,4.53
2023-03-28T02:41:21.842Z,2.20
2023-03-28T02:43:52.119Z,6.22
2023-03-28T02:46:30.227Z,4.20
2023-03-28T02:48:57.360Z,7.13
2023-03-28T02:52:09.440Z,5.13
2023-03-28T02:54:41.648Z,8.88
2023-03-28T02:57:46.974Z,8.65
2023-03-28T03:00:17.298Z,5.28
2023-03-28T03:02:46.572Z,5.25
2023-03-28T03:05:13.844Z,6.07
2023-03-28T03:07:41.478Z,5.40
2023-03-28T03:10:09.696Z,6.25
2023-03-28T03:12:36.921Z,8.63
2023-03-28T03:15:05.295Z,5.00
2023-03-28T03:18:01.753Z,6.38
2023-03-28T03:20:34.934Z,6.53
2023-03-28T03:23:03.713Z,5.22
2023-03-28T03:25:34.433Z,6.93
2023-03-28T03:28:20.149Z,7.32
2023-03-28T03:30:48.449Z,7.40
2023-03-28T03:33:24.619Z,6.22
2023-03-28T03:35:58.804Z,7.47
2023-03-28T03:38:26.143Z,7.55
2023-03-28T03:40:53.883Z,4.82
2023-03-28T03:43:21.194Z,6.57
2023-03-28T03:45:48.393Z,6.30
2023-03-28T03:48:15.600Z,9.75
2023-03-28T03:50:42.790Z,9.50
2023-03-28T03:53:16.590Z,7.72
2023-03-28T03:56:05.105Z,9.38
2023-03-28T03:58:50.400Z,7.97
2023-03-28T04:01:17.642Z,9.07
2023-03-28T04:03:45.010Z,8.23
2023-03-28T04:08:42.983Z,9.75
2023-03-28T04:11:10.558Z,7.57
2023-03-28T04:13:42.217Z,7.57
2023-03-28T04:16:09.672Z,8.90
2023-03-28T04:18:51.191Z,10.90
2023-03-28T04:21:25.730Z,6.88
2023-03-28T04:23:54.109Z,7.28
2023-03-28T04:26:35.788Z,11.43
2023-03-28T04:29:10.401Z,6.32
2023-03-28T04:31:39.854Z,8.88
2023-03-28T04:37:05.939Z,10.98
2023-03-28T04:39:41.632Z,10.18
2023-03-28T04:42:35.918Z,8.85
2023-03-28T04:45:08.973Z,9.60
2023-03-28T04:47:39.889Z,9.18
2023-03-28T04:50:10.913Z,9.20
2023-03-28T04:52:38.179Z,12.43
2023-03-28T04:55:05.904Z,10.50
2023-03-28T04:57:33.929Z,10.50
2023-03-28T05:00:09.730Z,11.10
2023-03-28T05:02:56.190Z,12.05
2023-03-28T05:05:25.461Z,9.43
2023-03-28T05:07:52.595Z,8.10
2023-03-28T05:10:21.465Z,8.02
2023-03-28T05:12:50.497Z,11.25
2023-03-28T05:15:21.077Z,10.18
2023-03-28T05:18:01.184Z,6.43
2023-03-28T05:20:32.183Z,8.18
2023-03-28T05:22:59.620Z,10.60
2023-03-28T05:25:26.889Z,12.18
2023-03-28T05:27:55.628Z,11.30
2023-03-28T05:30:23.068Z,8.95
2023-03-28T05:32:53.875Z,12.45
2023-03-28T05:35:21.123Z,10.60
2023-03-28T05:37:50.245Z,9.38
2023-03-28T05:40:17.853Z,9.88
2023-03-28T05:42:45.643Z,13.00
2023-03-28T05:45:15.674Z,9.80
2023-03-28T05:48:03.434Z,11.80
2023-03-28T05:50:31.308Z,10.32
2023-03-28T05:53:04.833Z,9.30
2023-03-28T05:55:35.380Z,16.30
2023-03-28T05:58:04.053Z,14.75
2023-03-28T06:00:39.988Z,13.60
2023-03-28T06:03:07.782Z,13.48
2023-03-28T06:05:37.906Z,10.27
2023-03-28T06:08:11.736Z,9.40
2023-03-28T06:10:38.962Z,13.52
2023-03-28T06:13:22.255Z,13.07
2023-03-28T06:15:49.456Z,12.23
2023-03-28T06:18:18.487Z,11.60
2023-03-28T06:20:48.837Z,13.93
2023-03-28T06:23:16.063Z,15.57
2023-03-28T06:25:43.691Z,8.65
2023-03-28T06:28:11.456Z,12.90
2023-03-28T06:30:58.655Z,15.13
2023-03-28T06:33:26.172Z,11.55
2023-03-28T06:35:53.376Z,8.60
2023-03-28T06:38:20.629Z,12.27
2023-03-28T06:40:51.509Z,11.18
2023-03-28T06:43:18.685Z,12.07
2023-03-28T06:45:47.715Z,12.25
2023-03-28T06:48:15.772Z,11.20
2023-03-28T06:51:14.997Z,10.27
2023-03-28T06:53:44.689Z,12.75
2023-03-28T06:56:12.825Z,9.43
2023-03-28T06:58:40.017Z,12.20
2023-03-28T07:01:10.991Z,12.85
2023-03-28T07:03:38.196Z,9.23
2023-03-28T07:06:07.258Z,9.45
2023-03-28T07:08:34.714Z,12.27
2023-03-28T07:11:02.120Z,11.93
2023-03-28T07:13:29.858Z,11.20
2023-03-28T07:16:02.702Z,10.98
2023-03-28T07:18:30.017Z,11.15
2023-03-28T07:21:03.983Z,10.55
2023-03-28T07:23:31.914Z,10.65
2023-03-28T07:25:59.228Z,9.63
2023-03-28T07:28:26.545Z,12.10
2023-03-28T07:30:55.341Z,8.30
2023-03-28T07:33:30.287Z,9.73
2023-03-28T07:36:17.050Z,8.75
2023-03-28T07:38:48.974Z,9.15
2023-03-28T07:41:17.707Z,10.20
2023-03-28T07:43:44.898Z,8.88
2023-03-28T07:46:14.409Z,10.40
2023-03-28T07:48:41.840Z,14.07
2023-03-28T07:51:10.183Z,9.57
2023-03-28T07:53:37.925Z,8.77
2023-03-28T07:56:06.288Z,10.18
2023-03-28T07:58:51.313Z,7.65
2023-03-28T08:01:19.598Z,6.47
2023-03-28T08:03:49.722Z,12.27
2023-03-28T08:06:30.926Z,10.75
2023-03-28T08:09:03.581Z,5.10
2023-03-28T08:11:40.330Z,11.63
2023-03-28T08:14:10.230Z,9.60
2023-03-28T08:16:38.400Z,7.55
2023-03-28T08:19:11.138Z,8.98
2023-03-28T08:21:58.695Z,8.55
2023-03-28T08:24:35.238Z,8.27
2023-03-28T08:27:10.275Z,10.73
2023-03-28T08:29:37.430Z,12.13
2023-03-28T08:32:06.310Z,8.70
2023-03-28T08:34:33.967Z,8.52
2023-03-28T08:37:05.576Z,7.15
2023-03-28T08:39:33.581Z,7.25
2023-03-28T08:42:06.057Z,10.90
2023-03-28T08:44:42.168Z,6.28
2023-03-28T08:47:17.775Z,7.55
2023-03-28T08:49:46.658Z,9.40
2023-03-28T08:52:18.300Z,12.07
2023-03-28T08:54:52.364Z,12.02
2023-03-28T08:57:22.160Z,9.43
2023-03-28T09:00:28.096Z,15.13
2023-03-28T09:02:56.112Z,7.10
2023-03-28T09:05:36.414Z,7.82
2023-03-28T09:08:19.712Z,4.82
2023-03-28T09:11:21.669Z,6.63
2023-03-28T09:13:54.951Z,4.43
2023-03-28T09:16:22.310Z,7.82
2023-03-28T09:19:10.510Z,5.45
2023-03-28T09:25:06.327Z,6.65
2023-03-28T09:27:37.731Z,6.50
2023-03-28T09:30:18.879Z,7.35
2023-03-28T09:32:53.018Z,7.43
2023-03-28T09:35:22.398Z,3.83
2023-03-28T09:37:52.851Z,6.13
2023-03-28T09:40:23.994Z,5.25
2023-03-28T09:43:20.489Z,5.40
2023-03-28T09:46:06.417Z,5.55
2023-03-28T09:48:56.991Z,5.05
2023-03-28T09:51:27.191Z,5.82
2023-03-28T09:53:55.371Z,5.68
2023-03-28T09:56:22.476Z,7.00
2023-03-28T09:58:51.481Z,6.68
2023-03-28T10:01:27.286Z,6.18
2023-03-28T10:04:15.012Z,4.68
2023-03-28T10:07:10.138Z,5.95
2023-03-28T10:09:51.494Z,8.27
2023-03-28T10:12:21.230Z,6.93
2023-03-28T10:14:48.716Z,5.55
2023-03-28T10:17:41.099Z,7.75
2023-03-28T10:20:19.012Z,3.45
2023-03-28T10:22:50.414Z,6.78
2023-03-28T10:25:23.194Z,8.27
2023-03-28T10:27:52.266Z,5.07
2023-03-28T10:30:22.390Z,5.68
2023-03-28T10:33:10.803Z,6.93
2023-03-28T10:35:58.895Z,5.05
2023-03-28T10:38:31.318Z,6.93
2023-03-28T10:41:37.680Z,4.10
2023-03-28T10:44:22.755Z,5.55
2023-03-28T10:47:23.232Z,7.68
2023-03-28T10:49:57.375Z,5.75
2023-03-28T10:52:34.522Z,5.10
2023-03-28T10:55:13.405Z,5.00
2023-03-28T10:58:11.157Z,6.45
2023-03-28T11:00:50.797Z,5.07
2023-03-28T11:03:27.025Z,5.07
2023-03-28T11:06:08.770Z,3.30
2023-03-28T11:08:57.341Z,6.82
2023-03-28T11:11:38.195Z,5.38
2023-03-28T11:14:25.528Z,7.53
2023-03-28T11:16:52.718Z,7.70
2023-03-28T11:19:47.648Z,5.22
2023-03-28T11:22:20.729Z,8.25
2023-03-28T11:25:01.522Z,7.57
2023-03-28T11:27:51.645Z,5.63
2023-03-28T11:30:32.317Z,5.30
2023-03-28T11:33:19.206Z,8.20
2023-03-28T11:35:49.825Z,6.28
2023-03-28T11:38:17.774Z,3.83
2023-03-28T11:40:46.554Z,9.15
2023-03-28T11:43:18.033Z,7.78
2023-03-28T11:45:52.468Z,8.07
2023-03-28T11:48:31.350Z,4.82
2023-03-28T11:51:04.303Z,5.78
2023-03-28T11:53:45.108Z,7.35
2023-03-28T11:56:32.755Z,5.18
2023-03-28T11:59:41.763Z,6.28
2023-03-28T12:02:36.249Z,5.68
2023-03-28T12:05:08.286Z,4.93
2023-03-28T12:07:39.080Z,5.65
2023-03-28T12:10:26.380Z,5.55
2023-03-28T12:13:06.902Z,8.25
2023-03-28T12:15:37.814Z,3.67
2023-03-28T12:18:38.426Z,5.30
2023-03-28T12:21:13.880Z,5.00
2023-03-28T12:24:13.627Z,5.47
2023-03-28T12:26:47.068Z,3.65
2023-03-28T12:29:25.532Z,4.68
2023-03-28T12:32:00.199Z,4.05
2023-03-28T12:34:41.627Z,4.72
2023-03-28T12:37:27.337Z,4.88
2023-03-28T12:40:14.924Z,5.00
2023-03-28T12:42:43.893Z,6.18
2023-03-28T12:45:20.567Z,3.90
2023-03-28T12:47:50.456Z,4.03
2023-03-28T12:50:25.364Z,4.05
2023-03-28T12:52:53.476Z,5.80
2023-03-28T12:55:31.513Z,5.20
2023-03-28T12:58:14.063Z,8.23
2023-03-28T13:01:09.819Z,7.55
2023-03-28T13:03:48.532Z,6.03
2023-03-28T13:06:22.876Z,8.25
2023-03-28T13:09:13.841Z,7.50
2023-03-28T13:11:51.747Z,7.80
2023-03-28T13:14:27.885Z,8.10
2023-03-28T13:17:24.465Z,8.25
2023-03-28T13:20:10.632Z,6.47
2023-03-28T13:22:50.501Z,6.82
2023-03-28T13:25:25.718Z,5.20
2023-03-28T13:27:54.496Z,7.13
2023-03-28T13:30:26.118Z,8.32
2023-03-28T13:32:55.167Z,7.78
2023-03-28T13:35:40.981Z,6.75
2023-03-28T13:38:15.997Z,10.07
2023-03-28T13:40:51.321Z,7.40
2023-03-28T13:43:29.044Z,4.63
2023-03-28T13:45:58.505Z,8.32
2023-03-28T13:48:29.769Z,5.70
2023-03-28T13:50:59.223Z,7.85
2023-03-28T13:53:34.627Z,7.45
2023-03-28T13:56:34.432Z,4.60
2023-03-28T13:59:05.034Z,4.70
2023-03-28T14:01:53.617Z,6.80
2023-03-28T14:04:22.626Z,7.47
2023-03-28T14:06:51.280Z,6.40
2023-03-28T14:09:29.890Z,7.40
2023-03-28T14:11:58.275Z,7.90
2023-03-28T14:14:28.495Z,8.63
2023-03-28T14:16:56.654Z,6.03
2023-03-28T14:19:28.555Z,6.72
2023-03-28T14:21:55.774Z,2.33
2023-03-28T14:24:24.356Z,3.88
2023-03-28T14:26:52.068Z,4.32
2023-03-28T14:29:20.235Z,5.10
2023-03-28T14:31:48.564Z,4.50
2023-03-28T14:34:21.654Z,3.72
2023-03-28T14:36:58.698Z,6.05
2023-03-28T14:39:26.780Z,5.75
2023-03-28T14:41:54.986Z,5.47
2023-03-28T14:44:22.508Z,6.68
2023-03-28T14:46:49.769Z,5.50
2023-03-28T14:49:19.332Z,4.85
2023-03-28T14:51:48.653Z,3.83
2023-03-28T14:54:17.137Z,5.63
2023-03-28T14:56:45.591Z,5.28
2023-03-28T14:59:16.051Z,3.78
2023-03-28T15:01:43.696Z,3.45
2023-03-28T15:04:12.048Z,6.32
2023-03-28T15:06:39.503Z,7.65
2023-03-28T15:09:22.717Z,5.15
2023-03-28T15:11:49.877Z,7.50
2023-03-28T15:14:21.969Z,6.97
2023-03-28T15:16:49.108Z,8.25
2023-03-28T15:19:22.148Z,7.88
2023-03-28T15:21:54.020Z,7.80
2023-03-28T15:24:21.330Z,6.55
2023-03-28T15:26:51.048Z,7.25
2023-03-28T15:29:19.442Z,5.65
2023-03-28T15:31:47.529Z,9.02
2023-03-28T15:34:27.287Z,10.02
2023-03-28T15:37:02.195Z,7.82
2023-03-28T15:39:31.859Z,6.80
2023-03-28T15:42:17.891Z,5.50
2023-03-28T15:44:51.258Z,10.73
2023-03-28T15:47:22.499Z,5.65
2023-03-28T15:49:50.676Z,6.40
2023-03-28T15:52:21.964Z,7.60
2023-03-28T15:54:50.740Z,4.85
2023-03-28T15:57:21.169Z,8.02
2023-03-28T15:59:51.095Z,4.60
2023-03-28T16:02:18.234Z,7.25
2023-03-28T16:04:58.128Z,9.60
2023-03-28T16:07:25.657Z,7.50
2023-03-28T16:09:52.769Z,6.78
2023-03-28T16:12:20.086Z,8.25
2023-03-28T16:15:07.934Z,8.00
2023-03-28T16:17:36.064Z,7.22
2023-03-28T16:20:17.753Z,8.75
2023-03-28T16:22:46.119Z,11.02
2023-03-28T16:25:13.430Z,3.72
2023-03-28T16:27:42.331Z,6.60
2023-03-28T16:30:20.539Z,8.23
2023-03-28T16:32:47.856Z,10.77
2023-03-28T16:35:15.108Z,7.78
2023-03-28T16:37:42.226Z,7.10
2023-03-28T16:40:10.497Z,6.25
2023-03-28T16:42:37.792Z,8.90
2023-03-28T16:45:05.094Z,5.97
2023-03-28T16:47:32.304Z,6.82
2023-03-28T16:49:59.500Z,7.55
2023-03-28T16:52:29.617Z,6.15
2023-03-28T16:54:57.246Z,6.80
2023-03-28T16:57:24.503Z,8.75
2023-03-28T16:59:51.843Z,10.40
2023-03-28T17:02:19.109Z,9.70
2023-03-28T17:04:50.791Z,9.50
2023-03-28T17:07:18.179Z,8.32
2023-03-28T17:09:45.313Z,8.60
2023-03-28T17:12:13.133Z,7.05
2023-03-28T17:14:40.575Z,10.40
2023-03-28T17:17:07.734Z,10.48
2023-03-28T17:19:34.984Z,9.00
2023-03-28T17:22:02.620Z,9.32
2023-03-28T17:24:30.036Z,9.40
2023-03-28T17:26:57.233Z,8.20
2023-03-28T17:29:24.839Z,7.70
2023-03-28T17:31:52.599Z,10.02
2023-03-28T17:34:19.955Z,9.75
2023-03-28T17:36:47.222Z,9.13
2023-03-28T17:39:14.295Z,9.57
2023-03-28T17:41:41.703Z,10.68
2023-03-28T17:44:09.304Z,12.13
2023-03-28T17:46:37.338Z,10.98
2023-03-28T17:49:04.479Z,8.48
2023-03-28T17:51:31.600Z,9.52
2023-03-28T17:54:00.838Z,12.85
2023-03-28T17:56:28.335Z,10.18
2023-03-28T17:58:55.543Z,10.32
2023-03-28T18:01:23.157Z,10.38
2023-03-28T18:03:51.103Z,9.95
2023-03-28T18:06:34.347Z,10.02
2023-03-28T18:09:01.493Z,10.43
2023-03-28T18:11:28.612Z,11.35
2023-03-28T18:13:59.153Z,9.95
2023-03-28T18:16:26.799Z,10.25
2023-03-28T18:18:54.282Z,10.88
2023-03-28T18:21:21.842Z,12.35
2023-03-28T18:23:48.943Z,10.80
2023-03-28T18:26:16.080Z,9.88
2023-03-28T18:28:43.447Z,9.90
2023-03-28T18:31:12.379Z,11.88
2023-03-28T18:33:40.721Z,9.90
2023-03-28T18:36:08.263Z,12.90
2023-03-28T18:38:39.707Z,9.60
2023-03-28T18:41:08.259Z,11.02
2023-03-28T18:43:36.100Z,9.80
2023-03-28T18:46:03.542Z,9.90
2023-03-28T18:48:31.192Z,9.73
2023-03-28T18:50:58.444Z,6.10
2023-03-28T18:53:27.572Z,9.70
2023-03-28T18:55:55.051Z,9.85
2023-03-28T18:58:26.146Z,12.20
2023-03-28T19:01:00.508Z,8.98
2023-03-28T19:03:29.145Z,11.20
2023-03-28T19:05:58.170Z,11.18
2023-03-28T19:08:26.173Z,10.48
2023-03-28T19:10:56.944Z,12.95
2023-03-28T19:13:24.750Z,12.63
2023-03-28T19:15:59.183Z,9.27
2023-03-28T19:18:26.958Z,12.88
2023-03-28T19:20:55.482Z,11.43
2023-03-28T19:23:23.070Z,10.52
2023-03-28T19:25:50.243Z,11.52
2023-03-28T19:28:17.983Z,11.32
2023-03-28T19:30:45.220Z,9.63
2023-03-28T19:33:12.784Z,10.63
2023-03-28T19:35:41.011Z,12.80
2023-03-28T19:38:08.202Z,11.93
2023-03-28T19:40:35.400Z,9.65
2023-03-28T19:43:02.732Z,10.88
2023-03-28T19:45:30.366Z,12.70
2023-03-28T19:47:57.690Z,10.32
2023-03-28T19:50:24.953Z,8.93
2023-03-28T19:52:52.082Z,13.65
2023-03-28T19:55:19.265Z,9.77
2023-03-28T19:57:46.359Z,7.68
2023-03-28T20:00:13.878Z,13.05
2023-03-28T20:02:41.183Z,12.10
2023-03-28T20:05:08.560Z,10.77
2023-03-28T20:07:36.118Z,8.98
2023-03-28T20:10:03.731Z,8.70
2023-03-28T20:12:30.936Z,10.93
2023-03-28T20:14:58.078Z,9.52
2023-03-28T20:17:25.234Z,10.73
2023-03-28T20:19:52.301Z,10.73
2023-03-28T20:22:24.234Z,8.45
2023-03-28T20:24:51.844Z,10.25
2023-03-28T20:27:19.509Z,9.85
2023-03-28T20:29:46.849Z,7.95
2023-03-28T20:32:14.062Z,8.60
2023-03-28T20:34:41.368Z,6.93
2023-03-28T20:37:08.555Z,8.10
2023-03-28T20:39:36.860Z,11.20
2023-03-28T20:42:05.633Z,9.18
2023-03-28T20:44:38.038Z,8.70
2023-03-28T20:47:09.108Z,7.72
2023-03-28T20:49:38.096Z,8.70
2023-03-28T20:52:07.686Z,8.02
2023-03-28T20:54:34.977Z,6.30
2023-03-28T20:57:02.205Z,8.68
2023-03-28T20:59:29.496Z,5.85
2023-03-28T21:01:56.597Z,6.40
2023-03-28T21:04:23.715Z,4.63
2023-03-28T21:06:50.874Z,5.57
2023-03-28T21:09:18.371Z,4.60
2023-03-28T21:11:45.884Z,4.50
2023-03-28T21:14:13.882Z,5.40
2023-03-28T21:16:41.590Z,6.35
2023-03-28T21:19:09.193Z,6.15
2023-03-28T21:21:41.207Z,6.55
2023-03-28T21:24:08.494Z,7.32
2023-03-28T21:26:35.949Z,6.80
2023-03-28T21:29:03.635Z,7.18
2023-03-28T21:31:30.849Z,7.60
2023-03-28T21:33:59.295Z,6.70
2023-03-28T21:36:27.722Z,6.97
2023-03-28T21:38:55.300Z,6.45
2023-03-28T21:41:22.861Z,8.35
2023-03-28T21:43:50.252Z,6.85
2023-03-28T21:46:18.914Z,6.35
2023-03-28T21:48:47.746Z,6.80
2023-03-28T21:51:15.643Z,10.63
2023-03-28T21:53:42.932Z,8.93
2023-03-28T21:56:11.592Z,7.13
2023-03-28T21:58:39.102Z,8.45
2023-03-28T22:01:06.845Z,6.72
2023-03-28T22:03:36.869Z,7.38
2023-03-28T22:06:04.306Z,9.57
2023-03-28T22:08:31.444Z,7.43
2023-03-28T22:11:01.208Z,8.82
2023-03-28T22:13:29.845Z,5.95
2023-03-28T22:16:00.409Z,6.03
2023-03-28T22:18:28.299Z,8.77
2023-03-28T22:20:55.604Z,6.60
2023-03-28T22:23:23.336Z,6.30
2023-03-28T22:25:50.621Z,6.78
2023-03-28T22:28:18.526Z,4.60
2023-03-28T22:30:46.000Z,5.72
2023-03-28T22:33:13.367Z,6.63
2023-03-28T22:35:41.103Z,9.23
2023-03-28T22:38:08.281Z,4.72
2023-03-28T22:40:35.692Z,7.55
2023-03-28T22:43:03.279Z,6.50
2023-03-28T22:45:30.400Z,5.72
2023-03-28T22:48:03.210Z,7.50
2023-03-28T22:50:33.295Z,5.60
2023-03-28T22:53:02.096Z,4.13
2023-03-28T22:55:29.269Z,7.53
2023-03-28T22:57:56.981Z,5.15
2023-03-28T23:00:24.166Z,5.68
2023-03-28T23:02:52.227Z,4.40
2023-03-28T23:05:20.069Z,5.18
2023-03-28T23:07:47.329Z,6.28
2023-03-28T23:10:19.131Z,5.32
2023-03-28T23:12:47.036Z,6.80
2023-03-28T23:15:14.466Z,5.47
2023-03-28T23:17:42.655Z,5.63
2023-03-28T23:20:12.906Z,6.25
2023-03-28T23:22:41.030Z,6.65
2023-03-28T23:25:08.440Z,5.05
2023-03-28T23:27:35.695Z,4.93
2023-03-28T23:30:02.943Z,6.53
2023-03-28T23:32:30.351Z,4.55
2023-03-28T23:34:57.648Z,4.38
2023-03-28T23:37:27.242Z,7.47
2023-03-28T23:39:55.243Z,4.05
2023-03-28T23:42:23.521Z,6.15
2023-03-28T23:44:51.574Z,5.13
2023-03-28T23:47:22.387Z,6.07
2023-03-28T23:49:49.568Z,5.35
2023-03-28T23:52:16.924Z,4.80
2023-03-28T23:54:44.174Z,5.50
2023-03-28T23:57:11.569Z,5.20
2023-03-28T23:59:38.831Z,4.75
